createdAt,value
2023-04-09T00:00:28.719Z,8.45
2023-04-09T00:05:30.669Z,8.44
2023-04-09T00:10:34.961Z,8.43
2023-04-09T00:15:37.347Z,8.39
2023-04-09T00:20:39.390Z,8.37
2023-04-09T00:25:41.251Z,8.32
2023-04-09T00:30:42.925Z,8.29
2023-04-09T00:35:46.915Z,8.26
2023-04-09T00:40:50.418Z,8.25
2023-04-09T00:45:56.909Z,8.25
2023-04-09T00:50:58.671Z,8.20
2023-04-09T00:56:00.500Z,8.21
2023-04-09T01:01:04.670Z,8.19
2023-04-09T01:06:24.842Z,8.19
2023-04-09T01:11:39.280Z,8.16
2023-04-09T01:16:50.315Z,8.14
2023-04-09T01:21:58.746Z,8.08
2023-04-09T01:27:07.712Z,8.08
2023-04-09T01:32:33.578Z,8.08
2023-04-09T01:37:38.523Z,8.11
2023-04-09T01:42:40.797Z,8.10
2023-04-09T01:47:45.818Z,8.05
2023-04-09T01:52:47.642Z,8.03
2023-04-09T01:57:51.698Z,8.05
2023-04-09T02:03:11.307Z,8.04
2023-04-09T02:08:42.156Z,8.04
2023-04-09T02:13:48.398Z,8.02
2023-04-09T02:18:54.795Z,8.02
2023-04-09T02:23:59.542Z,8.04
2023-04-09T02:29:05.720Z,8.05
2023-04-09T02:34:10.397Z,7.99
2023-04-09T02:39:12.202Z,7.96
2023-04-09T02:44:14.166Z,7.93
2023-04-09T02:49:16.133Z,7.91
2023-04-09T02:54:21.094Z,7.87
2023-04-09T02:59:25.065Z,7.87
2023-04-09T03:04:31.667Z,7.87
2023-04-09T03:09:35.723Z,7.87
2023-04-09T03:14:37.429Z,7.85
2023-04-09T03:19:39.281Z,7.78
2023-04-09T03:24:40.993Z,7.75
2023-04-09T03:29:47.340Z,7.72
2023-04-09T03:34:54.528Z,7.72
2023-04-09T03:39:57.471Z,7.70
2023-04-09T03:45:05.243Z,7.68
2023-04-09T03:50:12.762Z,7.66
2023-04-09T03:55:24.678Z,7.63
2023-04-09T04:00:27.496Z,7.61
2023-04-09T04:05:51.266Z,7.59
2023-04-09T04:10:53.191Z,7.57
2023-04-09T04:15:55.829Z,7.55
2023-04-09T04:21:01.156Z,7.57
2023-04-09T04:26:10.870Z,7.57
2023-04-09T04:31:18.325Z,7.52
2023-04-09T04:36:23.242Z,7.54
2023-04-09T04:41:29.714Z,7.50
2023-04-09T04:46:51.650Z,7.48
2023-04-09T04:51:55.686Z,7.49
2023-04-09T04:56:57.543Z,7.49
2023-04-09T05:02:11.752Z,7.49
2023-04-09T05:07:24.442Z,7.54
2023-04-09T05:12:31.890Z,7.57
2023-04-09T05:17:36.685Z,7.53
2023-04-09T05:22:39.382Z,7.59
2023-04-09T05:27:41.848Z,7.88
2023-04-09T05:32:44.594Z,7.84
2023-04-09T05:37:50.949Z,7.84
2023-04-09T05:42:53.344Z,7.84
2023-04-09T05:48:11.018Z,7.88
2023-04-09T05:53:14.292Z,7.94
2023-04-09T05:58:18.804Z,8.02
2023-04-09T06:03:22.497Z,8.09
2023-04-09T06:08:32.076Z,8.20
2023-04-09T06:13:33.741Z,8.35
2023-04-09T06:18:42.453Z,8.49
2023-04-09T06:23:46.481Z,8.53
2023-04-09T06:28:50.446Z,8.58
2023-04-09T06:33:52.339Z,8.70
2023-04-09T06:38:59.408Z,8.84
2023-04-09T06:44:01.614Z,8.98
2023-04-09T06:49:06.005Z,9.13
2023-04-09T06:54:07.698Z,9.25
2023-04-09T06:59:09.420Z,9.30
2023-04-09T07:04:11.707Z,9.47
2023-04-09T07:09:13.473Z,9.67
2023-04-09T07:14:15.620Z,9.77
2023-04-09T07:19:20.385Z,9.98
2023-04-09T07:24:22.707Z,9.95
2023-04-09T07:29:24.545Z,9.71
2023-04-09T07:34:26.634Z,9.52
2023-04-09T07:39:31.288Z,9.44
2023-04-09T07:44:36.530Z,9.53
2023-04-09T07:49:38.503Z,9.69
2023-04-09T07:54:40.519Z,9.75
2023-04-09T07:59:42.283Z,9.76
2023-04-09T08:04:49.451Z,9.88
2023-04-09T08:09:51.606Z,9.84
2023-04-09T08:14:56.132Z,9.67
2023-04-09T08:19:57.836Z,9.63
2023-04-09T08:25:01.411Z,9.85
2023-04-09T08:30:07.339Z,9.95
2023-04-09T08:35:13.208Z,10.18
2023-04-09T08:40:15.275Z,10.55
2023-04-09T08:45:19.276Z,10.70
2023-04-09T08:50:21.144Z,10.93
2023-04-09T08:55:22.928Z,10.99
2023-04-09T09:00:24.758Z,11.12
2023-04-09T09:05:36.317Z,11.31
2023-04-09T09:10:43.007Z,11.22
2023-04-09T09:15:49.945Z,11.20
2023-04-09T09:20:51.742Z,11.57
2023-04-09T09:25:59.565Z,11.63
2023-04-09T09:31:10.117Z,11.51
2023-04-09T09:36:16.035Z,11.71
2023-04-09T09:41:23.360Z,12.00
2023-04-09T09:46:26.328Z,12.27
2023-04-09T09:51:31.489Z,12.65
2023-04-09T09:56:39.417Z,12.97
2023-04-09T10:01:44.355Z,13.23
2023-04-09T10:06:50.275Z,13.32
2023-04-09T10:11:56.012Z,13.50
2023-04-09T10:16:57.839Z,13.88
2023-04-09T10:22:05.774Z,13.78
2023-04-09T10:27:12.552Z,14.07
2023-04-09T10:32:23.870Z,13.73
2023-04-09T10:37:27.387Z,13.80
2023-04-09T10:42:38.873Z,14.00
2023-04-09T10:47:42.816Z,13.92
2023-04-09T10:52:45.350Z,13.85
2023-04-09T10:57:49.554Z,13.83
2023-04-09T11:03:04.567Z,13.86
2023-04-09T11:08:14.027Z,14.00
2023-04-09T11:13:17.472Z,14.05
2023-04-09T11:18:25.883Z,13.79
2023-04-09T11:23:28.097Z,14.32
2023-04-09T11:28:29.927Z,14.67
2023-04-09T11:33:36.888Z,14.77
2023-04-09T11:38:41.435Z,14.88
2023-04-09T11:43:43.338Z,15.10
2023-04-09T11:48:45.372Z,15.29
2023-04-09T11:53:52.227Z,15.89
2023-04-09T11:58:54.864Z,16.94
2023-04-09T12:03:56.697Z,18.01
2023-04-09T12:08:59.280Z,18.96
2023-04-09T12:14:02.899Z,19.63
2023-04-09T12:19:08.784Z,20.30
2023-04-09T12:24:10.497Z,20.80
2023-04-09T12:29:21.609Z,21.40
2023-04-09T12:34:27.305Z,21.79
2023-04-09T12:39:33.855Z,22.58
2023-04-09T12:44:37.206Z,22.92
2023-04-09T12:49:40.630Z,23.32
2023-04-09T12:54:44.976Z,22.65
2023-04-09T12:59:46.746Z,22.89
2023-04-09T13:04:49.242Z,23.50
2023-04-09T13:09:51.202Z,23.46
2023-04-09T13:14:59.367Z,24.13
2023-04-09T13:20:03.792Z,24.98
2023-04-09T13:25:08.156Z,25.65
2023-04-09T13:30:10.035Z,26.06
2023-04-09T13:35:11.739Z,26.70
2023-04-09T13:40:13.534Z,26.69
2023-04-09T13:45:18.065Z,27.11
2023-04-09T13:50:22.442Z,26.58
2023-04-09T13:55:26.756Z,25.73
2023-04-09T14:00:31.033Z,25.32
2023-04-09T14:05:35.061Z,25.81
2023-04-09T14:10:41.480Z,26.40
2023-04-09T14:15:45.326Z,26.87
2023-04-09T14:20:47.257Z,27.45
2023-04-09T14:25:51.331Z,28.65
2023-04-09T14:30:56.398Z,29.42
2023-04-09T14:35:59.030Z,29.27
2023-04-09T14:41:00.862Z,30.14
2023-04-09T14:46:06.457Z,30.57
2023-04-09T14:51:11.746Z,30.93
2023-04-09T14:56:13.482Z,31.46
2023-04-09T15:01:17.490Z,31.92
2023-04-09T15:06:19.515Z,31.48
2023-04-09T15:11:26.779Z,31.51
2023-04-09T15:16:29.426Z,31.92
2023-04-09T15:21:34.059Z,31.61
2023-04-09T15:26:36.028Z,31.41
2023-04-09T15:31:40.032Z,31.35
2023-04-09T15:36:46.128Z,31.12
2023-04-09T15:41:50.093Z,30.91
2023-04-09T15:46:54.857Z,30.45
2023-04-09T15:51:56.836Z,30.42
2023-04-09T15:57:04.253Z,30.31
2023-04-09T16:02:08.745Z,30.09
2023-04-09T16:07:11.029Z,29.64
2023-04-09T16:12:15.590Z,27.98
2023-04-09T16:17:19.539Z,26.57
2023-04-09T16:22:23.690Z,25.15
2023-04-09T16:27:25.424Z,24.00
2023-04-09T16:32:29.374Z,23.38
2023-04-09T16:37:31.340Z,22.84
2023-04-09T16:42:36.913Z,22.03
2023-04-09T16:47:40.996Z,21.50
2023-04-09T16:52:44.137Z,21.05
2023-04-09T16:57:45.939Z,20.53
2023-04-09T17:02:47.761Z,20.04
2023-04-09T17:07:49.538Z,19.59
2023-04-09T17:12:53.663Z,19.27
2023-04-09T17:17:58.495Z,18.79
2023-04-09T17:23:02.449Z,18.48
2023-04-09T17:28:06.931Z,18.09
2023-04-09T17:33:12.410Z,17.57
2023-04-09T17:38:20.505Z,17.14
2023-04-09T17:43:22.278Z,16.80
2023-04-09T17:48:23.949Z,16.53
2023-04-09T17:53:27.781Z,16.27
2023-04-09T17:58:31.866Z,15.97
2023-04-09T18:03:34.156Z,15.61
2023-04-09T18:08:36.889Z,15.37
2023-04-09T18:13:40.953Z,15.16
2023-04-09T18:18:45.260Z,14.93
2023-04-09T18:23:47.367Z,14.79
2023-04-09T18:28:49.121Z,14.66
2023-04-09T18:33:51.406Z,14.54
2023-04-09T18:39:00.278Z,14.33
2023-04-09T18:44:02.302Z,14.11
2023-04-09T18:49:06.296Z,13.97
2023-04-09T18:54:10.111Z,14.00
2023-04-09T18:59:12.264Z,13.91
2023-04-09T19:04:14.312Z,13.72
2023-04-09T19:09:16.077Z,13.52
2023-04-09T19:14:19.871Z,13.30
2023-04-09T19:19:24.088Z,13.20
2023-04-09T19:24:25.890Z,13.03
2023-04-09T19:29:30.394Z,12.93
2023-04-09T19:34:34.894Z,12.76
2023-04-09T19:39:36.634Z,12.64
2023-04-09T19:44:40.641Z,12.57
2023-04-09T19:49:42.540Z,12.55
2023-04-09T19:54:44.237Z,12.43
2023-04-09T19:59:48.550Z,12.10
2023-04-09T20:04:52.391Z,11.93
2023-04-09T20:09:54.656Z,12.07
2023-04-09T20:14:59.352Z,11.76
2023-04-09T20:20:04.849Z,11.69
2023-04-09T20:25:07.142Z,11.66
2023-04-09T20:30:11.628Z,11.65
2023-04-09T20:35:14.547Z,11.67
2023-04-09T20:40:19.073Z,11.65
2023-04-09T20:45:21.091Z,11.78
2023-04-09T20:50:22.826Z,11.66
2023-04-09T20:55:25.467Z,11.53
2023-04-09T21:00:27.692Z,11.41
2023-04-09T21:05:29.397Z,11.25
2023-04-09T21:10:33.457Z,11.13
2023-04-09T21:15:38.213Z,11.01
2023-04-09T21:20:48.789Z,10.97
2023-04-09T21:25:50.464Z,10.79
2023-04-09T21:30:57.702Z,10.68
2023-04-09T21:35:59.608Z,10.46
2023-04-09T21:41:01.876Z,10.28
2023-04-09T21:46:05.986Z,10.10
2023-04-09T21:51:13.545Z,9.98
2023-04-09T21:56:17.859Z,9.86
2023-04-09T22:01:29.046Z,9.72
2023-04-09T22:06:35.708Z,9.58
2023-04-09T22:11:41.159Z,9.43
2023-04-09T22:16:48.233Z,9.33
2023-04-09T22:21:50.650Z,9.24
2023-04-09T22:27:01.626Z,9.17
2023-04-09T22:32:05.712Z,9.04
2023-04-09T22:37:12.247Z,9.00
2023-04-09T22:42:17.054Z,8.92
2023-04-09T22:47:18.769Z,8.88
2023-04-09T22:52:20.634Z,8.83
2023-04-09T22:57:22.305Z,8.76
2023-04-09T23:02:24.195Z,8.69
2023-04-09T23:07:26.186Z,8.59
2023-04-09T23:12:27.871Z,8.51
2023-04-09T23:17:32.016Z,8.41
2023-04-09T23:22:39.007Z,8.34
2023-04-09T23:27:43.646Z,8.29
2023-04-09T23:32:48.398Z,8.25
2023-04-09T23:37:53.101Z,8.16
2023-04-09T23:42:57.019Z,8.10
2023-04-09T23:48:00.797Z,8.02
2023-04-09T23:53:04.708Z,8.02
2023-04-09T23:58:09.763Z,7.91
